Meadows Of Dan, Virginia
Current Conditions -  °F | °C
As of 5:35 PM on Wednesday 22 Oct 2014 (Local Time) from KMWK Reporting Station
Scattered Clouds Scattered Clouds  
Wind Chill: 56°   Ceiling: Unl
Heat Index: 56°   Visibility: 10mi
Dew Point: 41°   Wind: 8mph
Humidity: 56%   Direction: 310°NW
Pressure: 30.09"   Gusts: 18mph
Location:  36.74°N, 80.39°W
Report Text: KMWK 222135Z AUTO 31007G16KT 10SM SCT044 SCT049 14/05 A3009 RMK AO2 T01360049
Loading
Personal Weather Stations






























Interactive Weather Map
Tropical Storm Tracking
New forecast layout! Learn more

10-Day Weather Forecast

Advertisements
Track Severe Weather on mobile